Time;durP1;ratioP1;P1;durP2;ratioP2;P2;SDS_P1;SDS_P2;PMS_P1;PMS_P2;Temp;Humidity;BMP_temperature;BMP_pressure;BME280_temperature;BME280_humidity;BME280_pressure;Samples;Min_cycle;Max_cycle;Signal;HPM_P1;HPM_P2
2023/07/10 00:00:18;;;;;;;8.18;3.40;;;19.00;99.90;;;;;;4992107;28;20070;-68
2023/07/10 00:02:44;;;;;;;9.77;4.38;;;18.90;99.90;;;;;;4991990;28;20041;-68
2023/07/10 00:05:14;;;;;;;11.20;4.20;;;18.90;99.90;;;;;;4992153;28;20038;-67
2023/07/10 00:07:41;;;;;;;12.43;4.60;;;18.80;99.90;;;;;;4991577;28;20033;-67
2023/07/10 00:10:09;;;;;;;14.63;4.75;;;18.70;99.90;;;;;;4991672;28;20046;-68
2023/07/10 00:12:35;;;;;;;15.15;4.78;;;18.70;99.90;;;;;;4991706;28;20030;-67
2023/07/10 00:15:01;;;;;;;11.60;4.28;;;18.60;99.90;;;;;;4991347;28;20034;-67
2023/07/10 00:17:26;;;;;;;11.57;4.82;;;18.60;99.90;;;;;;4990556;28;20043;-69
2023/07/10 00:19:52;;;;;;;13.40;4.85;;;18.60;99.90;;;;;;4991378;28;20038;-66
2023/07/10 00:22:17;;;;;;;12.57;4.47;;;18.70;99.90;;;;;;4991818;28;20049;-66
2023/07/10 00:24:43;;;;;;;11.63;5.00;;;18.70;99.90;;;;;;4990987;28;20054;-67
2023/07/10 00:27:12;;;;;;;13.05;4.50;;;18.70;99.90;;;;;;4991349;28;20657;-68
2023/07/10 00:29:38;;;;;;;11.05;4.43;;;18.70;99.90;;;;;;4991447;28;20541;-68
2023/07/10 00:32:13;;;;;;;14.32;4.53;;;18.80;99.90;;;;;;4991494;28;20045;-68
2023/07/10 00:34:38;;;;;;;12.05;4.25;;;18.80;99.90;;;;;;4991426;28;20517;-68
2023/07/10 00:37:04;;;;;;;14.02;4.20;;;18.80;99.90;;;;;;4990854;28;20029;-68
2023/07/10 00:39:33;;;;;;;11.45;4.45;;;18.90;99.90;;;;;;4991242;28;20038;-67
2023/07/10 00:42:16;;;;;;;11.95;3.97;;;18.80;99.90;;;;;;4991139;28;20066;-68
2023/07/10 00:44:50;;;;;;;13.70;4.70;;;18.90;99.90;;;;;;4990821;28;20471;-68
2023/07/10 00:47:19;;;;;;;11.88;4.30;;;18.80;99.90;;;;;;4991462;28;20069;-68
2023/07/10 00:49:58;;;;;;;11.40;4.68;;;18.80;99.90;;;;;;4990712;28;20103;-68
2023/07/10 00:52:44;;;;;;;11.30;4.35;;;18.80;99.90;;;;;;4990806;28;20069;-67
2023/07/10 00:55:33;;;;;;;12.88;5.05;;;18.80;99.90;;;;;;4991072;28;20034;-69
2023/07/10 00:58:24;;;;;;;12.73;4.57;;;18.80;99.90;;;;;;4988010;28;20635;-67
2023/07/10 01:01:06;;;;;;;13.13;4.80;;;18.70;99.90;;;;;;4971451;28;20073;-68
2023/07/10 01:03:33;;;;;;;16.30;5.40;;;18.70;99.90;;;;;;4971549;28;20062;-68
2023/07/10 01:06:04;;;;;;;12.50;5.28;;;18.60;99.90;;;;;;4971140;28;20082;-67
2023/07/10 01:08:31;;;;;;;13.48;5.43;;;18.60;99.90;;;;;;4970973;28;20042;-67
2023/07/10 01:10:56;;;;;;;15.02;5.43;;;18.50;99.90;;;;;;4971496;28;20039;-67
2023/07/10 01:13:22;;;;;;;14.07;5.15;;;18.50;99.90;;;;;;4971023;28;20042;-67
2023/07/10 01:15:48;;;;;;;11.35;5.60;;;18.50;99.90;;;;;;4971445;28;20043;-68
2023/07/10 01:18:15;;;;;;;12.07;5.47;;;18.50;99.90;;;;;;4971081;28;20038;-68
2023/07/10 01:20:48;;;;;;;13.15;5.63;;;18.50;99.90;;;;;;4971194;28;20119;-68
2023/07/10 01:23:16;;;;;;;16.15;6.30;;;18.60;99.90;;;;;;4970947;28;20467;-68
2023/07/10 01:25:53;;;;;;;12.98;6.28;;;18.60;99.90;;;;;;4971017;28;20494;-67
2023/07/10 01:28:21;;;;;;;13.02;5.20;;;18.70;99.90;;;;;;4970922;28;20160;-68
2023/07/10 01:30:50;;;;;;;12.98;4.80;;;18.70;99.90;;;;;;4971085;28;20062;-67
2023/07/10 01:33:33;;;;;;;12.30;5.15;;;18.70;99.90;;;;;;4970676;28;20456;-68
2023/07/10 01:36:00;;;;;;;11.98;4.93;;;18.80;99.90;;;;;;4970781;28;20058;-67
2023/07/10 01:38:46;;;;;;;7.25;3.65;;;18.80;99.90;;;;;;4970733;28;20033;-67
2023/07/10 01:41:31;;;;;;;9.15;3.60;;;18.80;99.90;;;;;;4970726;28;20027;-67
2023/07/10 01:43:56;;;;;;;8.40;3.20;;;18.70;99.90;;;;;;4970522;28;20494;-67
2023/07/10 01:46:25;;;;;;;12.02;4.03;;;18.70;99.90;;;;;;4971143;28;20027;-67
2023/07/10 01:48:54;;;;;;;6.30;2.92;;;18.60;99.90;;;;;;4973408;28;20038;-67
2023/07/10 01:51:21;;;;;;;6.53;2.67;;;18.60;99.90;;;;;;4973444;28;20058;-67
2023/07/10 01:53:47;;;;;;;11.43;3.53;;;18.50;99.90;;;;;;4973525;28;20061;-67
2023/07/10 01:56:16;;;;;;;7.80;2.88;;;18.40;99.90;;;;;;4973074;28;20467;-68
2023/07/10 01:58:42;;;;;;;8.35;2.75;;;18.40;99.90;;;;;;4973276;28;20031;-66
2023/07/10 02:01:08;;;;;;;11.55;2.92;;;18.30;99.90;;;;;;4973300;28;20348;-67
2023/07/10 02:03:34;;;;;;;8.02;2.72;;;18.20;99.90;;;;;;4973526;28;20026;-68
2023/07/10 02:05:59;;;;;;;7.20;2.58;;;18.10;99.90;;;;;;4971988;28;20026;-67
2023/07/10 02:08:25;;;;;;;8.27;2.53;;;18.10;99.90;;;;;;4973416;28;20479;-67
2023/07/10 02:10:51;;;;;;;5.35;2.70;;;18.00;99.90;;;;;;4973211;28;20039;-67
2023/07/10 02:13:16;;;;;;;8.85;2.63;;;17.90;99.90;;;;;;4971531;28;20031;-67
2023/07/10 02:15:42;;;;;;;8.10;2.67;;;17.90;99.90;;;;;;4973232;28;20023;-67
2023/07/10 02:18:07;;;;;;;6.72;2.45;;;17.80;99.90;;;;;;4973066;28;20067;-68
2023/07/10 02:20:33;;;;;;;5.63;2.80;;;17.80;99.90;;;;;;4971839;28;20082;-67
2023/07/10 02:22:58;;;;;;;5.10;2.40;;;17.80;99.90;;;;;;4973375;28;20031;-67
2023/07/10 02:25:24;;;;;;;8.05;2.42;;;17.70;99.90;;;;;;4972753;28;20455;-67
2023/07/10 02:27:50;;;;;;;6.90;2.42;;;17.70;99.90;;;;;;4972630;28;20388;-68
2023/07/10 02:30:17;;;;;;;9.02;2.90;;;17.60;99.90;;;;;;4973253;28;20038;-67
2023/07/10 02:32:42;;;;;;;6.93;2.75;;;17.60;99.90;;;;;;4973087;28;20456;-67
2023/07/10 02:35:08;;;;;;;11.23;2.63;;;17.60;99.90;;;;;;4973205;28;20054;-68
2023/07/10 02:37:34;;;;;;;8.68;2.78;;;17.60;99.90;;;;;;4973405;28;20019;-68
2023/07/10 02:39:59;;;;;;;12.38;3.05;;;17.50;99.90;;;;;;4973022;28;20042;-67
2023/07/10 02:42:26;;;;;;;11.55;2.83;;;17.50;99.90;;;;;;4976511;28;20073;-67
2023/07/10 02:44:52;;;;;;;14.15;3.15;;;17.50;99.90;;;;;;4977221;28;20045;-67
2023/07/10 02:47:18;;;;;;;10.63;3.28;;;17.50;99.90;;;;;;4976829;28;20035;-68
2023/07/10 02:49:43;;;;;;;8.52;3.28;;;17.50;99.90;;;;;;4976880;28;20053;-68
2023/07/10 02:52:09;;;;;;;11.20;3.05;;;17.50;99.90;;;;;;4977864;28;20033;-69
2023/07/10 02:54:34;;;;;;;11.40;3.38;;;17.50;99.90;;;;;;4995713;28;20022;-67
2023/07/10 02:57:00;;;;;;;12.02;3.10;;;17.50;99.90;;;;;;4995819;28;20125;-67
2023/07/10 02:59:29;;;;;;;9.68;3.20;;;17.50;99.90;;;;;;4995697;28;20026;-67
2023/07/10 03:01:55;;;;;;;13.77;3.28;;;17.50;99.90;;;;;;4996103;28;20030;-67
2023/07/10 03:04:20;;;;;;;14.43;3.28;;;17.50;99.90;;;;;;4996160;28;20489;-67
2023/07/10 03:06:48;;;;;;;9.23;2.95;;;17.50;99.90;;;;;;4995892;28;20026;-67
2023/07/10 03:09:15;;;;;;;8.98;2.72;;;17.50;99.90;;;;;;4994537;28;20484;-68
2023/07/10 03:11:40;;;;;;;14.25;3.50;;;17.50;99.90;;;;;;4995560;28;20061;-67
2023/07/10 03:14:06;;;;;;;13.30;3.38;;;17.50;99.90;;;;;;4995863;28;20026;-66
2023/07/10 03:16:32;;;;;;;10.88;3.33;;;17.50;99.90;;;;;;4995919;28;20034;-67
2023/07/10 03:18:57;;;;;;;12.32;3.50;;;17.50;99.90;;;;;;4997019;28;20362;-68
2023/07/10 03:21:23;;;;;;;9.60;3.05;;;17.50;99.90;;;;;;5004151;28;20018;-68
2023/07/10 03:23:49;;;;;;;9.98;3.20;;;17.50;99.90;;;;;;5002649;28;20033;-67
2023/07/10 03:26:15;;;;;;;11.32;3.08;;;17.60;99.90;;;;;;5011052;28;20785;-68
2023/07/10 03:28:41;;;;;;;11.13;3.20;;;17.50;99.90;;;;;;4998450;28;20049;-67
2023/07/10 03:31:07;;;;;;;15.63;3.20;;;17.50;99.90;;;;;;5008216;28;20489;-68
2023/07/10 03:33:33;;;;;;;9.68;3.10;;;17.60;99.90;;;;;;5004571;28;20046;-66
2023/07/10 03:36:01;;;;;;;9.68;3.03;;;17.60;99.90;;;;;;5001321;28;20081;-68
2023/07/10 03:38:27;;;;;;;10.38;3.13;;;17.50;99.90;;;;;;5011018;28;20068;-68
2023/07/10 03:40:54;;;;;;;9.88;3.30;;;17.50;99.90;;;;;;4998089;28;20053;-67
2023/07/10 03:43:20;;;;;;;8.93;3.00;;;17.60;99.90;;;;;;5006320;28;20098;-67
2023/07/10 03:45:45;;;;;;;7.13;2.70;;;17.50;99.90;;;;;;5006700;28;20129;-67
2023/07/10 03:48:11;;;;;;;8.20;2.63;;;17.50;99.90;;;;;;4999055;28;20482;-68
2023/07/10 03:50:37;;;;;;;9.50;2.60;;;17.60;99.90;;;;;;5010781;28;20131;-67
2023/07/10 03:53:02;;;;;;;14.07;2.88;;;17.60;99.90;;;;;;5000351;28;20026;-67
2023/07/10 03:55:28;;;;;;;9.77;2.75;;;17.60;99.90;;;;;;5004894;28;20113;-67
2023/07/10 03:57:53;;;;;;;8.30;2.75;;;17.60;99.90;;;;;;5007424;28;20470;-66
2023/07/10 04:00:19;;;;;;;11.05;2.70;;;17.60;99.90;;;;;;4998157;28;20063;-67
2023/07/10 04:02:45;;;;;;;9.13;2.97;;;17.60;99.90;;;;;;5011103;28;20495;-67
2023/07/10 04:05:10;;;;;;;12.45;2.67;;;17.60;99.90;;;;;;5002163;28;20104;-67
2023/07/10 04:07:36;;;;;;;12.00;3.10;;;17.60;99.90;;;;;;5004032;28;20033;-67
2023/07/10 04:10:02;;;;;;;13.00;2.88;;;17.60;99.90;;;;;;5008189;28;20371;-66
2023/07/10 04:12:28;;;;;;;12.20;3.15;;;17.60;99.90;;;;;;4998080;28;20081;-67
2023/07/10 04:14:53;;;;;;;8.25;2.80;;;17.60;99.90;;;;;;5009555;28;20030;-66
2023/07/10 04:17:19;;;;;;;9.50;2.63;;;17.60;99.90;;;;;;5002680;28;20379;-67
2023/07/10 04:19:44;;;;;;;10.98;3.17;;;17.60;99.90;;;;;;5002395;28;20028;-67
2023/07/10 04:22:10;;;;;;;10.30;2.90;;;17.60;99.90;;;;;;5009586;28;20451;-67
2023/07/10 04:24:35;;;;;;;10.77;2.80;;;17.60;99.90;;;;;;4997738;28;20050;-68
2023/07/10 04:27:01;;;;;;;11.63;2.85;;;17.60;99.90;;;;;;5008534;28;20018;-66
2023/07/10 04:29:27;;;;;;;9.25;3.17;;;17.60;99.90;;;;;;5003910;28;20049;-67
2023/07/10 04:31:52;;;;;;;12.05;3.00;;;17.70;99.90;;;;;;5001586;28;20026;-68
2023/07/10 04:34:18;;;;;;;11.27;3.30;;;17.70;99.90;;;;;;5010785;28;20034;-68
2023/07/10 04:36:43;;;;;;;10.70;2.78;;;17.70;99.90;;;;;;4997801;28;20018;-67
2023/07/10 04:39:10;;;;;;;11.45;3.00;;;17.70;99.90;;;;;;5006463;28;20061;-67
2023/07/10 04:41:37;;;;;;;14.48;3.05;;;17.70;99.90;;;;;;5004721;28;20034;-68
2023/07/10 04:44:03;;;;;;;10.35;2.88;;;17.70;99.90;;;;;;4999777;28;20073;-68
2023/07/10 04:46:29;;;;;;;10.13;2.78;;;17.80;99.90;;;;;;5010465;28;20062;-66
2023/07/10 04:48:55;;;;;;;13.70;2.75;;;17.80;99.90;;;;;;4997639;28;20034;-68
2023/07/10 04:51:20;;;;;;;8.40;2.95;;;17.80;99.90;;;;;;5005180;28;20069;-68
2023/07/10 04:53:47;;;;;;;9.52;2.53;;;17.90;99.90;;;;;;5005612;28;20726;-68
2023/07/10 04:56:14;;;;;;;11.98;3.20;;;17.90;99.90;;;;;;4998424;28;20022;-67
2023/07/10 04:58:52;;;;;;;14.52;3.25;;;18.00;99.90;;;;;;4999697;28;20030;-67
2023/07/10 05:01:20;;;;;;;11.07;2.78;;;18.00;99.90;;;;;;5005699;28;20105;-68
2023/07/10 05:03:46;;;;;;;10.75;3.22;;;18.10;99.90;;;;;;5004819;28;20331;-67
2023/07/10 05:06:11;;;;;;;12.45;2.97;;;18.20;99.90;;;;;;4998037;28;20041;-67
2023/07/10 05:08:37;;;;;;;8.73;2.88;;;18.20;99.90;;;;;;5009946;28;20212;-67
2023/07/10 05:11:02;;;;;;;6.20;2.53;;;18.40;99.90;;;;;;4999599;28;20025;-67
2023/07/10 05:13:29;;;;;;;11.90;3.20;;;18.40;99.90;;;;;;5004146;28;20022;-67
2023/07/10 05:15:59;;;;;;;13.23;3.00;;;18.50;99.90;;;;;;5006439;28;20025;-67
2023/07/10 05:18:29;;;;;;;10.95;2.78;;;18.60;99.90;;;;;;4997018;28;20489;-67
2023/07/10 05:20:56;;;;;;;10.32;3.38;;;18.70;99.90;;;;;;5007225;28;20026;-67
2023/07/10 05:23:22;;;;;;;12.63;3.10;;;18.80;99.90;;;;;;5002263;28;20037;-67
2023/07/10 05:26:11;;;;;;;14.75;2.70;;;19.00;99.90;;;;;;5000880;28;20046;-67
2023/07/10 05:28:38;;;;;;;11.40;2.53;;;19.10;99.90;;;;;;5009702;28;20593;-66
2023/07/10 05:31:06;;;;;;;12.55;2.85;;;19.30;99.90;;;;;;4999521;28;20040;-66
2023/07/10 05:33:32;;;;;;;11.77;2.53;;;19.40;99.90;;;;;;5002800;28;20093;-67
2023/07/10 05:36:03;;;;;;;14.95;2.95;;;19.70;99.90;;;;;;5006644;28;20038;-66
2023/07/10 05:38:31;;;;;;;8.00;2.83;;;20.00;99.90;;;;;;4996572;28;20080;-66
2023/07/10 05:40:57;;;;;;;10.95;2.63;;;20.30;99.90;;;;;;5007616;28;20080;-68
2023/07/10 05:43:24;;;;;;;15.82;2.45;;;20.70;99.90;;;;;;5002212;28;20113;-67
2023/07/10 05:45:51;;;;;;;12.68;3.30;;;21.30;99.90;;;;;;5000348;28;20105;-67
2023/07/10 05:48:17;;;;;;;13.00;3.40;;;21.90;99.90;;;;;;5009283;28;20064;-68
2023/07/10 05:50:44;;;;;;;10.07;3.00;;;22.70;99.90;;;;;;4996537;28;20394;-68
2023/07/10 05:53:10;;;;;;;14.38;3.03;;;23.40;99.90;;;;;;5005594;28;20030;-68
2023/07/10 05:55:35;;;;;;;8.68;2.30;;;23.90;99.90;;;;;;5003394;28;20037;-67
2023/07/10 05:58:01;;;;;;;11.95;2.60;;;24.30;99.90;;;;;;4998769;28;20422;-67
2023/07/10 06:00:27;;;;;;;11.20;2.63;;;24.90;99.90;;;;;;5009048;28;20612;-67
2023/07/10 06:02:52;;;;;;;10.90;2.10;;;25.50;99.90;;;;;;4997203;28;20418;-67
2023/07/10 06:05:18;;;;;;;12.65;2.10;;;26.00;99.90;;;;;;5004521;28;20065;-67
2023/07/10 06:07:43;;;;;;;10.27;2.17;;;26.70;99.90;;;;;;5004500;28;20041;-69
2023/07/10 06:10:09;;;;;;;7.90;2.03;;;27.30;99.90;;;;;;4997210;28;20073;-67
2023/07/10 06:12:35;;;;;;;10.00;2.47;;;27.80;99.90;;;;;;5009344;28;20084;-68
2023/07/10 06:15:00;;;;;;;9.82;2.17;;;28.20;99.20;;;;;;4998411;28;20485;-67
2023/07/10 06:17:26;;;;;;;10.18;2.80;;;28.50;98.70;;;;;;5003313;28;20479;-66
2023/07/10 06:19:52;;;;;;;8.55;2.50;;;28.70;98.20;;;;;;5005219;28;20474;-67
2023/07/10 06:22:17;;;;;;;9.02;2.22;;;28.90;97.40;;;;;;4996420;28;20605;-67
2023/07/10 06:24:43;;;;;;;8.55;2.13;;;28.90;97.00;;;;;;5008974;28;20047;-67
2023/07/10 06:27:10;;;;;;;5.53;2.00;;;29.00;97.10;;;;;;4999216;28;20463;-68
2023/07/10 06:29:36;;;;;;;11.25;2.33;;;29.40;96.40;;;;;;5001549;28;20503;-68
2023/07/10 06:32:02;;;;;;;8.25;1.80;;;29.70;95.90;;;;;;5006383;28;20030;-68
2023/07/10 06:34:28;;;;;;;9.48;1.95;;;30.20;95.30;;;;;;4995967;28;20030;-68
2023/07/10 06:36:54;;;;;;;12.77;2.13;;;30.50;94.60;;;;;;5007452;28;20069;-67
2023/07/10 06:39:20;;;;;;;8.90;2.10;;;30.70;94.00;;;;;;5000998;28;20410;-67
2023/07/10 06:41:45;;;;;;;9.27;2.53;;;31.00;93.50;;;;;;5000355;28;20467;-67
2023/07/10 06:44:11;;;;;;;9.55;2.13;;;31.10;93.00;;;;;;5007560;28;20030;-68
2023/07/10 06:46:36;;;;;;;7.78;1.95;;;31.20;93.00;;;;;;4995932;28;20049;-67
2023/07/10 06:49:02;;;;;;;8.52;2.40;;;31.50;92.60;;;;;;5006140;28;20070;-68
2023/07/10 06:51:28;;;;;;;9.95;2.45;;;31.60;92.20;;;;;;5001683;28;20033;-68
2023/07/10 06:53:53;;;;;;;11.25;2.17;;;31.80;91.80;;;;;;4999109;28;20027;-67
2023/07/10 06:56:19;;;;;;;10.45;2.10;;;31.90;91.80;;;;;;5008726;28;20373;-67
2023/07/10 06:58:44;;;;;;;8.65;2.30;;;32.00;91.50;;;;;;4995658;28;20022;-68
2023/07/10 07:01:10;;;;;;;11.27;2.35;;;32.10;91.20;;;;;;5004954;28;20018;-67
2023/07/10 07:03:35;;;;;;;12.77;2.22;;;32.10;90.70;;;;;;5002123;28;20120;-67
2023/07/10 07:06:05;;;;;;;13.85;2.70;;;32.00;90.80;;;;;;4998259;28;20110;-68
2023/07/10 07:08:31;;;;;;;10.70;2.50;;;32.20;90.70;;;;;;5008670;28;20462;-68
2023/07/10 07:10:56;;;;;;;7.60;2.05;;;32.40;90.40;;;;;;4997645;28;20029;-66
2023/07/10 07:13:22;;;;;;;8.85;2.10;;;32.70;90.10;;;;;;5003497;28;20046;-66
2023/07/10 07:15:52;;;;;;;11.20;2.08;;;32.90;89.20;;;;;;4997209;28;20058;-66
2023/07/10 07:18:18;;;;;;;8.10;1.90;;;32.90;87.80;;;;;;4992125;28;20126;-67
2023/07/10 07:20:44;;;;;;;11.05;2.17;;;32.80;87.20;;;;;;4980895;28;20522;-65
2023/07/10 07:23:09;;;;;;;13.00;2.22;;;32.60;87.50;;;;;;5004997;28;20041;-66
2023/07/10 07:25:35;;;;;;;9.35;2.05;;;32.50;86.80;;;;;;5001530;28;20041;-68
2023/07/10 07:28:03;;;;;;;7.22;2.00;;;32.30;87.60;;;;;;5000683;28;20073;-67
2023/07/10 07:30:29;;;;;;;10.07;2.13;;;32.40;87.60;;;;;;5011506;28;20073;-66
2023/07/10 07:32:56;;;;;;;10.77;2.40;;;32.30;87.30;;;;;;4995803;28;20041;-67
2023/07/10 07:35:22;;;;;;;10.05;2.20;;;32.40;86.50;;;;;;4989224;28;20394;-67
2023/07/10 07:37:47;;;;;;;8.30;1.90;;;32.30;86.00;;;;;;4990582;28;20026;-67
2023/07/10 07:40:16;;;;;;;12.82;2.05;;;32.10;86.40;;;;;;4993227;28;20059;-67
2023/07/10 07:42:48;;;;;;;7.68;1.92;;;31.90;86.40;;;;;;5011772;28;20027;-67
2023/07/10 07:45:14;;;;;;;12.20;2.75;;;31.90;87.20;;;;;;5002744;28;20053;-68
2023/07/10 07:47:41;;;;;;;5.32;1.55;;;32.10;87.30;;;;;;5002471;28;20077;-68
2023/07/10 07:50:08;;;;;;;9.70;1.75;;;31.90;86.70;;;;;;4995882;28;20053;-67
2023/07/10 07:52:33;;;;;;;11.02;2.10;;;31.90;86.90;;;;;;4993207;28;20041;-66
2023/07/10 07:54:59;;;;;;;9.60;2.17;;;31.70;86.90;;;;;;4990560;28;20030;-67
2023/07/10 07:57:25;;;;;;;9.77;2.28;;;31.30;87.70;;;;;;5003339;28;20023;-67
2023/07/10 07:59:51;;;;;;;10.15;2.33;;;30.80;88.20;;;;;;4991454;28;20015;-67
2023/07/10 08:02:17;;;;;;;9.13;2.10;;;30.30;89.90;;;;;;4990500;28;20026;-68
2023/07/10 08:04:43;;;;;;;7.30;2.50;;;30.00;90.10;;;;;;4991740;28;20386;-67
2023/07/10 08:07:09;;;;;;;10.30;2.42;;;29.60;90.50;;;;;;4993575;28;20505;-66
2023/07/10 08:09:34;;;;;;;9.45;2.10;;;29.30;90.50;;;;;;4988142;28;20035;-67
2023/07/10 08:12:00;;;;;;;11.90;2.22;;;28.80;91.20;;;;;;4991284;28;20026;-68
2023/07/10 08:14:26;;;;;;;12.80;2.13;;;28.60;91.30;;;;;;4991323;28;20019;-67
2023/07/10 08:16:52;;;;;;;9.48;1.98;;;28.40;91.10;;;;;;4993440;28;20037;-68
2023/07/10 08:19:18;;;;;;;8.63;1.90;;;28.50;90.70;;;;;;4990143;28;20022;-68
2023/07/10 08:21:43;;;;;;;8.57;2.05;;;28.60;89.50;;;;;;4994661;28;20414;-67
2023/07/10 08:24:09;;;;;;;9.82;1.75;;;28.80;90.70;;;;;;4995644;28;20410;-67
2023/07/10 08:26:34;;;;;;;6.85;2.00;;;29.00;90.60;;;;;;4993763;28;20057;-67
2023/07/10 08:29:30;;;;;;;7.63;1.98;;;29.30;90.50;;;;;;4994797;28;20030;-67
2023/07/10 08:31:59;;;;;;;10.95;2.10;;;30.20;89.10;;;;;;4992571;28;20031;-67
2023/07/10 08:34:27;;;;;;;10.30;2.05;;;31.10;86.80;;;;;;5004587;28;20015;-67
2023/07/10 08:36:53;;;;;;;10.55;1.85;;;32.00;84.70;;;;;;4991612;28;20049;-67
2023/07/10 08:39:21;;;;;;;10.77;2.25;;;32.80;84.10;;;;;;4990912;28;20054;-67
2023/07/10 08:42:04;;;;;;;8.15;1.83;;;33.70;82.70;;;;;;4988455;28;20530;-67
2023/07/10 08:44:34;;;;;;;9.93;1.60;;;34.10;80.00;;;;;;4994515;28;20030;-68
2023/07/10 08:47:09;;;;;;;5.20;1.77;;;34.80;79.20;;;;;;5000186;28;20105;-68
2023/07/10 08:49:58;;;;;;;9.02;1.80;;;35.10;77.70;;;;;;4992698;28;20050;-68
2023/07/10 08:52:45;;;;;;;12.07;2.15;;;35.70;77.00;;;;;;4981004;28;20043;-68
2023/07/10 08:55:13;;;;;;;6.28;1.88;;;36.40;76.40;;;;;;4991127;28;20076;-67
2023/07/10 08:57:43;;;;;;;9.45;2.20;;;36.90;74.70;;;;;;4983779;28;20054;-68
2023/07/10 09:00:19;;;;;;;8.30;1.85;;;36.70;74.50;;;;;;4983419;28;20443;-67
2023/07/10 09:03:03;;;;;;;8.38;2.03;;;36.90;74.70;;;;;;4984937;28;20394;-68
2023/07/10 09:05:30;;;;;;;9.15;1.85;;;37.30;73.40;;;;;;4988714;28;20546;-67
2023/07/10 09:08:05;;;;;;;9.10;1.80;;;37.40;72.90;;;;;;4989049;28;20150;-67
2023/07/10 09:10:52;;;;;;;8.77;1.90;;;37.50;73.20;;;;;;4991391;28;20038;-68
2023/07/10 09:13:28;;;;;;;13.23;2.15;;;37.10;73.20;;;;;;4990183;28;20476;-67
2023/07/10 09:15:56;;;;;;;9.45;2.00;;;37.00;73.30;;;;;;4989673;28;20027;-68
2023/07/10 09:18:47;;;;;;;8.57;2.25;;;37.10;73.70;;;;;;4990418;28;20034;-68
2023/07/10 09:21:20;;;;;;;11.90;2.05;;;37.40;73.50;;;;;;4991347;28;20077;-69
2023/07/10 09:23:46;;;;;;;10.20;2.08;;;37.60;73.50;;;;;;4991264;28;20105;-67
2023/07/10 09:26:19;;;;;;;10.65;2.22;;;38.00;73.00;;;;;;4992091;28;20030;-67
2023/07/10 09:29:08;;;;;;;9.98;2.30;;;38.40;72.60;;;;;;4991393;28;20081;-67
2023/07/10 09:31:48;;;;;;;12.00;2.67;;;38.60;72.00;;;;;;4990427;28;20723;-68
2023/07/10 09:34:13;;;;;;;11.43;2.33;;;38.90;71.80;;;;;;4984444;28;20026;-67
2023/07/10 09:36:39;;;;;;;7.15;1.88;;;39.10;70.30;;;;;;4983151;28;20041;-68
2023/07/10 09:39:05;;;;;;;7.00;1.63;;;39.00;70.60;;;;;;4982222;28;20125;-69
2023/07/10 09:41:31;;;;;;;13.32;2.42;;;38.70;70.90;;;;;;4984246;28;20027;-69
2023/07/10 09:43:59;;;;;;;10.27;1.90;;;38.30;71.30;;;;;;4983007;28;20027;-68
2023/07/10 09:46:29;;;;;;;12.02;2.28;;;38.30;71.70;;;;;;4989530;28;20121;-68
2023/07/10 09:48:58;;;;;;;10.07;1.73;;;38.50;70.60;;;;;;5005196;28;20466;-68
2023/07/10 09:51:24;;;;;;;6.97;1.95;;;38.50;69.80;;;;;;4996861;28;20034;-68
2023/07/10 09:53:53;;;;;;;8.70;2.20;;;38.50;70.40;;;;;;5009363;28;20026;-68
2023/07/10 09:56:23;;;;;;;8.60;1.85;;;38.50;70.80;;;;;;5000282;28;20022;-69
2023/07/10 09:58:55;;;;;;;9.30;1.90;;;38.10;69.40;;;;;;5001443;28;20026;-67
2023/07/10 10:01:25;;;;;;;7.50;1.90;;;38.00;69.80;;;;;;5001213;28;20026;-68
2023/07/10 10:03:53;;;;;;;11.50;2.03;;;38.10;69.70;;;;;;5009154;28;20017;-68
2023/07/10 10:06:25;;;;;;;10.10;1.52;;;38.40;69.90;;;;;;5005559;28;20300;-68
2023/07/10 10:08:52;;;;;;;9.27;1.88;;;38.50;69.50;;;;;;5004195;28;20038;-67
2023/07/10 10:11:28;;;;;;;9.80;2.00;;;38.50;68.50;;;;;;4997822;28;20049;-67
2023/07/10 10:13:56;;;;;;;9.88;2.17;;;38.60;68.70;;;;;;4980937;28;20034;-68
2023/07/10 10:16:34;;;;;;;8.43;1.63;;;38.70;67.60;;;;;;5005306;28;20118;-67
2023/07/10 10:19:09;;;;;;;8.93;2.00;;;38.70;66.50;;;;;;5005453;28;20034;-67
2023/07/10 10:21:35;;;;;;;10.10;1.83;;;38.40;66.30;;;;;;4996202;28;20030;-68
2023/07/10 10:24:05;;;;;;;10.73;2.35;;;38.70;66.50;;;;;;5007770;28;20042;-68
2023/07/10 10:26:40;;;;;;;11.32;2.30;;;39.00;66.00;;;;;;4993195;28;20481;-68
2023/07/10 10:29:33;;;;;;;10.60;2.13;;;38.80;66.30;;;;;;4992130;28;20034;-68
2023/07/10 10:32:08;;;;;;;8.70;1.60;;;38.10;66.80;;;;;;4992989;28;20469;-69
2023/07/10 10:35:00;;;;;;;8.35;1.58;;;37.90;66.50;;;;;;4993089;28;20038;-68
2023/07/10 10:37:44;;;;;;;7.03;2.30;;;37.60;67.80;;;;;;4993072;28;20125;-68
2023/07/10 10:40:40;;;;;;;5.35;1.17;;;37.60;67.90;;;;;;4993155;28;20023;-67
2023/07/10 10:43:36;;;;;;;8.23;2.00;;;37.80;66.70;;;;;;4993134;28;20545;-67
2023/07/10 10:46:05;;;;;;;9.88;1.60;;;37.40;67.20;;;;;;4992771;28;20066;-68
2023/07/10 10:48:56;;;;;;;8.02;2.10;;;37.20;66.50;;;;;;4991581;28;20031;-68
2023/07/10 10:51:29;;;;;;;6.20;1.60;;;37.00;67.10;;;;;;4992448;28;20045;-68
2023/07/10 10:54:13;;;;;;;6.82;1.75;;;37.00;67.20;;;;;;4992147;28;20072;-69
2023/07/10 10:56:44;;;;;;;10.13;1.55;;;36.80;67.70;;;;;;4992752;28;20030;-68
2023/07/10 10:59:19;;;;;;;6.93;1.65;;;36.80;66.30;;;;;;4991077;28;20092;-68
2023/07/10 11:02:30;;;;;;;8.90;1.80;;;36.50;67.50;;;;;;4993458;28;20407;-68
2023/07/10 11:05:16;;;;;;;;;;;36.30;67.80;;;;;;4996644;28;20121;-68
2023/07/10 11:07:45;;;;;;;11.85;1.92;;;36.00;67.70;;;;;;4959976;28;19910;-68
2023/07/10 11:10:15;;;;;;;4.70;1.25;;;35.60;68.50;;;;;;4976351;28;20043;-68
2023/07/10 11:12:41;;;;;;;6.45;1.60;;;35.60;68.50;;;;;;4991584;28;20086;-68
2023/07/10 11:15:20;;;;;;;8.25;1.75;;;35.50;68.80;;;;;;4995536;28;20118;-68
2023/07/10 11:17:48;;;;;;;5.90;1.40;;;35.20;68.50;;;;;;4996087;28;20030;-68
2023/07/10 11:20:16;;;;;;;9.77;2.17;;;35.60;67.60;;;;;;4996175;28;20060;-68
2023/07/10 11:23:00;;;;;;;5.20;1.20;;;35.50;68.00;;;;;;4995925;28;20030;-69
2023/07/10 11:25:57;;;;;;;5.57;1.52;;;35.30;66.70;;;;;;4995935;28;20136;-68
2023/07/10 11:28:28;;;;;;;3.75;1.17;;;35.30;67.10;;;;;;4995821;28;20034;-69
2023/07/10 11:31:18;;;;;;;4.65;1.50;;;35.50;66.60;;;;;;4996060;28;20110;-69
2023/07/10 11:33:48;;;;;;;2.92;1.25;;;35.60;65.90;;;;;;4996023;28;20045;-69
2023/07/10 11:36:35;;;;;;;5.88;1.48;;;35.90;65.10;;;;;;4994795;28;20348;-69
2023/07/10 11:39:07;;;;;;;4.75;1.35;;;35.50;65.80;;;;;;5007123;28;20080;-69
2023/07/10 11:41:34;;;;;;;6.57;1.27;;;35.20;65.70;;;;;;5015187;28;20041;-69
2023/07/10 11:44:32;;;;;;;8.35;1.30;;;35.60;63.00;;;;;;4996780;28;20126;-68
2023/07/10 11:47:04;;;;;;;5.15;1.30;;;36.20;64.40;;;;;;4995832;28;20077;-68
2023/07/10 11:49:43;;;;;;;3.58;1.05;;;36.90;64.40;;;;;;4995895;28;20034;-69
2023/07/10 11:52:14;;;;;;;5.93;1.27;;;37.20;62.50;;;;;;5009409;28;20125;-68
2023/07/10 11:54:40;;;;;;;6.03;1.20;;;37.30;62.30;;;;;;5014963;28;20063;-69
2023/07/10 11:57:08;;;;;;;3.10;0.93;;;37.60;61.10;;;;;;5014928;28;20034;-69
2023/07/10 11:59:45;;;;;;;2.35;0.98;;;37.70;59.80;;;;;;5014983;28;20060;-69
2023/07/10 12:02:19;;;;;;;2.47;1.10;;;37.10;60.00;;;;;;5014905;28;20409;-69
2023/07/10 12:04:45;;;;;;;5.60;1.17;;;37.20;59.20;;;;;;5015120;28;20062;-69
2023/07/10 12:07:12;;;;;;;6.15;1.10;;;37.40;59.40;;;;;;5014571;28;20042;-70
2023/07/10 12:09:37;;;;;;;4.53;1.05;;;37.10;59.50;;;;;;4997314;28;20125;-69
2023/07/10 12:12:03;;;;;;;4.82;1.00;;;36.90;59.10;;;;;;4994942;28;20551;-68
2023/07/10 12:14:30;;;;;;;3.67;1.15;;;36.70;59.60;;;;;;4994721;28;20161;-68
2023/07/10 12:16:58;;;;;;;2.75;0.98;;;36.70;60.10;;;;;;4995078;28;20026;-69
2023/07/10 12:19:36;;;;;;;5.90;1.23;;;36.80;59.10;;;;;;4994800;28;20031;-69
2023/07/10 12:22:16;;;;;;;3.17;1.00;;;36.40;59.30;;;;;;4995015;28;20081;-68
2023/07/10 12:24:55;;;;;;;5.17;1.53;;;36.20;59.60;;;;;;4994976;28;20134;-70
2023/07/10 12:27:22;;;;;;;3.75;1.10;;;35.70;60.10;;;;;;4994303;28;20027;-69
2023/07/10 12:29:54;;;;;;;3.15;0.85;;;34.90;60.60;;;;;;4994194;28;20554;-70
2023/07/10 12:32:22;;;;;;;4.18;0.90;;;34.20;61.20;;;;;;4987596;28;20757;-70
2023/07/10 12:34:47;;;;;;;5.00;1.02;;;33.60;60.80;;;;;;4994691;28;20475;-68
2023/07/10 12:37:15;;;;;;;6.05;1.05;;;33.40;61.80;;;;;;4994855;28;20052;-69
2023/07/10 12:39:42;;;;;;;2.65;0.75;;;33.40;61.30;;;;;;4994409;28;20042;-69
2023/07/10 12:42:27;;;;;;;3.67;1.00;;;33.60;61.40;;;;;;4994819;28;20037;-69
2023/07/10 12:44:53;;;;;;;2.55;0.75;;;33.80;60.50;;;;;;4994512;28;20034;-69
2023/07/10 12:47:18;;;;;;;3.08;0.95;;;33.70;59.30;;;;;;4994460;28;20030;-69
2023/07/10 12:49:54;;;;;;;2.92;1.00;;;33.40;61.00;;;;;;4994095;28;20379;-69
2023/07/10 12:52:22;;;;;;;3.25;1.00;;;33.20;62.30;;;;;;4994647;28;20093;-70
2023/07/10 12:54:51;;;;;;;3.35;1.13;;;33.00;60.80;;;;;;4994039;28;20383;-69